createdAt,value
2022-08-23T00:02:25.326Z,19.90
2022-08-23T00:05:07.866Z,19.90
2022-08-23T00:07:40.047Z,19.90
2022-08-23T00:10:11.287Z,19.80
2022-08-23T00:12:39.943Z,19.80
2022-08-23T00:15:10.056Z,19.70
2022-08-23T00:17:39.214Z,19.70
2022-08-23T00:20:09.386Z,19.70
2022-08-23T00:22:37.811Z,19.60
2022-08-23T00:25:10.451Z,19.50
2022-08-23T00:27:39.016Z,19.40
2022-08-23T00:30:08.690Z,19.40
2022-08-23T00:32:39.224Z,19.30
2022-08-23T00:35:09.032Z,19.30
2022-08-23T00:37:36.610Z,19.20
2022-08-23T00:40:10.154Z,19.20
2022-08-23T00:43:10.017Z,19.20
2022-08-23T00:46:03.766Z,19.20
2022-08-23T00:48:32.459Z,19.20
2022-08-23T00:51:16.894Z,19.20
2022-08-23T00:53:49.084Z,19.20
2022-08-23T00:56:18.695Z,19.10
2022-08-23T00:58:46.337Z,19.10
2022-08-23T01:01:14.402Z,19.10
2022-08-23T01:03:44.868Z,19.10
2022-08-23T01:06:34.473Z,19.00
2022-08-23T01:09:07.809Z,19.00
2022-08-23T01:11:40.335Z,19.00
2022-08-23T01:14:23.149Z,19.00
2022-08-23T01:16:59.342Z,19.10
2022-08-23T01:19:36.102Z,19.00
2022-08-23T01:22:31.324Z,19.00
2022-08-23T01:25:06.787Z,19.00
2022-08-23T01:27:39.381Z,19.10
2022-08-23T01:30:09.693Z,19.00
2022-08-23T01:32:44.395Z,19.00
2022-08-23T01:35:12.482Z,19.00
2022-08-23T01:37:39.794Z,19.00
2022-08-23T01:40:08.390Z,18.90
2022-08-23T01:42:35.956Z,18.90
2022-08-23T01:45:03.025Z,18.80
2022-08-23T01:47:31.901Z,18.70
2022-08-23T01:49:59.508Z,18.70
2022-08-23T01:52:27.244Z,18.60
2022-08-23T01:54:57.189Z,18.60
2022-08-23T01:57:24.496Z,18.50
2022-08-23T01:59:53.253Z,18.50
2022-08-23T02:02:20.065Z,18.40
2022-08-23T02:04:47.315Z,18.40
2022-08-23T02:07:14.901Z,18.40
2022-08-23T02:09:42.171Z,18.40
2022-08-23T02:12:10.215Z,18.30
2022-08-23T02:14:37.411Z,18.30
2022-08-23T02:17:08.661Z,18.20
2022-08-23T02:19:38.987Z,18.20
2022-08-23T02:22:07.737Z,18.10
2022-08-23T02:24:38.907Z,18.10
2022-08-23T02:27:05.850Z,18.10
2022-08-23T02:29:39.355Z,18.00
2022-08-23T02:32:09.961Z,17.90
2022-08-23T02:34:37.680Z,17.90
2022-08-23T02:37:05.801Z,17.90
2022-08-23T02:39:32.679Z,17.80
2022-08-23T02:42:00.938Z,17.80
2022-08-23T02:44:31.325Z,17.80
2022-08-23T02:46:58.128Z,17.70
2022-08-23T02:49:24.909Z,17.70
2022-08-23T02:51:51.799Z,17.70
2022-08-23T02:54:18.611Z,17.70
2022-08-23T02:56:45.631Z,17.70
2022-08-23T02:59:13.433Z,17.60
2022-08-23T03:01:40.680Z,17.50
2022-08-23T03:04:30.141Z,17.50
2022-08-23T03:06:57.040Z,17.40
2022-08-23T03:09:24.016Z,17.40
2022-08-23T03:11:51.150Z,17.30
2022-08-23T03:14:20.317Z,17.30
2022-08-23T03:16:48.105Z,17.20
2022-08-23T03:19:15.231Z,17.20
2022-08-23T03:21:43.409Z,17.20
2022-08-23T03:24:12.156Z,17.10
2022-08-23T03:26:48.936Z,17.10
2022-08-23T03:29:17.317Z,17.00
2022-08-23T03:31:57.702Z,16.90
2022-08-23T03:34:25.737Z,16.80
2022-08-23T03:36:53.525Z,16.80
2022-08-23T03:39:20.413Z,16.70
2022-08-23T03:41:47.417Z,16.50
2022-08-23T03:44:14.120Z,16.40
2022-08-23T03:46:43.843Z,16.40
2022-08-23T03:49:10.923Z,16.30
2022-08-23T03:51:49.484Z,16.30
2022-08-23T03:54:16.755Z,16.30
2022-08-23T03:57:01.114Z,16.40
2022-08-23T03:59:44.588Z,16.40
2022-08-23T04:02:12.136Z,16.40
2022-08-23T04:04:39.306Z,16.50
2022-08-23T04:07:25.743Z,16.40
2022-08-23T04:09:55.679Z,16.50
2022-08-23T04:12:25.408Z,16.50
2022-08-23T04:14:53.452Z,16.50
2022-08-23T04:17:21.596Z,16.60
2022-08-23T04:19:49.527Z,16.60
2022-08-23T04:22:18.500Z,16.70
2022-08-23T04:24:46.389Z,16.60
2022-08-23T04:27:14.084Z,16.70
2022-08-23T04:29:41.392Z,16.70
2022-08-23T04:32:11.733Z,16.70
2022-08-23T04:34:40.394Z,16.70
2022-08-23T04:37:09.685Z,16.70
2022-08-23T04:39:56.914Z,16.80
2022-08-23T04:42:25.892Z,16.80
2022-08-23T04:44:52.889Z,16.70
2022-08-23T04:47:20.483Z,16.70
2022-08-23T04:49:48.691Z,16.70
2022-08-23T04:52:19.185Z,16.70
2022-08-23T04:54:47.335Z,16.70
2022-08-23T04:57:27.135Z,16.60
2022-08-23T04:59:53.931Z,16.70
2022-08-23T05:02:21.772Z,16.70
2022-08-23T05:04:48.720Z,16.70
2022-08-23T05:07:15.712Z,16.70
2022-08-23T05:09:43.273Z,16.70
2022-08-23T05:12:11.390Z,16.70
2022-08-23T05:14:38.209Z,16.60
2022-08-23T05:17:05.282Z,16.60
2022-08-23T05:19:35.043Z,16.70
2022-08-23T05:22:06.387Z,16.70
2022-08-23T05:25:02.183Z,16.90
2022-08-23T05:27:29.103Z,17.10
2022-08-23T05:29:56.250Z,17.20
2022-08-23T05:32:23.792Z,17.30
2022-08-23T05:34:50.652Z,17.50
2022-08-23T05:37:17.770Z,17.60
2022-08-23T05:39:44.686Z,17.70
2022-08-23T05:42:14.685Z,17.90
2022-08-23T05:44:43.443Z,18.00
2022-08-23T05:47:12.585Z,18.10
2022-08-23T05:49:49.698Z,18.20
2022-08-23T05:52:17.488Z,18.30
2022-08-23T05:54:44.338Z,18.40
2022-08-23T05:57:24.507Z,18.40
2022-08-23T05:59:51.298Z,18.40
2022-08-23T06:02:18.011Z,18.50
2022-08-23T06:04:45.783Z,18.60
2022-08-23T06:07:12.698Z,18.70
2022-08-23T06:09:39.940Z,18.70
2022-08-23T06:12:08.642Z,18.90
2022-08-23T06:14:35.713Z,19.10
2022-08-23T06:17:02.579Z,19.30
2022-08-23T06:19:30.703Z,19.50
2022-08-23T06:22:06.752Z,19.70
2022-08-23T06:24:38.435Z,19.90
2022-08-23T06:27:13.863Z,20.00
2022-08-23T06:33:56.328Z,20.30
2022-08-23T06:36:39.622Z,20.50
2022-08-23T06:39:16.037Z,20.60
2022-08-23T06:42:50.243Z,20.80
2022-08-23T06:45:04.398Z,21.00
2022-08-23T06:47:40.211Z,21.10
2022-08-23T06:50:07.441Z,21.20
2022-08-23T06:53:07.109Z,21.10
2022-08-23T06:55:56.998Z,21.30
2022-08-23T06:58:34.182Z,21.40
2022-08-23T07:01:47.971Z,21.60
2022-08-23T07:04:29.265Z,21.80
2022-08-23T07:07:18.423Z,22.00
2022-08-23T07:09:45.292Z,22.20
2022-08-23T07:12:12.167Z,22.40
2022-08-23T07:14:42.464Z,22.60
2022-08-23T07:17:09.880Z,22.70
2022-08-23T07:19:36.935Z,22.90
2022-08-23T07:22:05.769Z,23.00
2022-08-23T07:24:33.945Z,23.20
2022-08-23T07:27:06.979Z,23.30
2022-08-23T07:29:37.058Z,23.40
2022-08-23T07:32:05.717Z,23.40
2022-08-23T07:34:33.485Z,23.60
2022-08-23T07:37:01.532Z,23.60
2022-08-23T07:39:31.659Z,23.80
2022-08-23T07:42:01.118Z,23.90
2022-08-23T07:44:28.118Z,24.10
2022-08-23T07:46:55.325Z,24.10
2022-08-23T07:49:23.143Z,24.20
2022-08-23T07:51:58.678Z,24.20
2022-08-23T07:54:28.321Z,24.40
2022-08-23T07:57:03.688Z,24.70
2022-08-23T07:59:49.096Z,24.90
2022-08-23T08:02:39.003Z,25.10
2022-08-23T08:05:10.249Z,25.30
2022-08-23T08:07:37.687Z,25.50
2022-08-23T08:10:05.945Z,25.60
2022-08-23T08:12:33.182Z,25.80
2022-08-23T08:15:09.850Z,26.00
2022-08-23T08:17:39.566Z,26.20
2022-08-23T08:20:30.999Z,26.40
2022-08-23T08:23:18.205Z,26.50
2022-08-23T08:26:06.359Z,26.70
2022-08-23T08:28:36.392Z,27.30
2022-08-23T08:31:04.071Z,27.80
2022-08-23T08:33:34.269Z,28.60
2022-08-23T08:36:02.673Z,29.60
2022-08-23T08:38:31.591Z,30.10
2022-08-23T08:41:23.477Z,30.60
2022-08-23T08:44:17.715Z,31.20
2022-08-23T08:46:52.519Z,31.70
2022-08-23T08:49:56.703Z,32.30
2022-08-23T08:52:33.734Z,33.00
2022-08-23T08:55:14.150Z,33.30
2022-08-23T08:57:48.111Z,34.20
2022-08-23T09:00:30.815Z,34.40
2022-08-23T09:02:59.485Z,34.20
2022-08-23T09:05:31.700Z,34.60
2022-08-23T09:08:21.142Z,34.30
2022-08-23T09:10:59.855Z,34.90
2022-08-23T09:14:08.038Z,35.50
2022-08-23T09:16:53.170Z,36.00
2022-08-23T09:19:22.763Z,36.40
2022-08-23T09:21:58.513Z,36.70
2022-08-23T09:24:27.057Z,36.50
2022-08-23T09:27:01.100Z,37.00
2022-08-23T09:29:34.464Z,37.20
2022-08-23T09:32:04.567Z,37.40
2022-08-23T09:34:37.044Z,37.30
2022-08-23T09:37:25.188Z,37.00
2022-08-23T09:39:53.916Z,37.40
2022-08-23T09:42:31.085Z,37.40
2022-08-23T09:44:59.253Z,37.50
2022-08-23T09:47:44.051Z,38.10
2022-08-23T09:50:26.077Z,38.50
2022-08-23T09:53:09.600Z,39.20
2022-08-23T09:55:56.067Z,39.10
2022-08-23T09:58:41.418Z,38.70
2022-08-23T10:01:18.222Z,38.70
2022-08-23T10:04:10.385Z,38.80
2022-08-23T10:06:37.619Z,39.50
2022-08-23T10:09:07.807Z,39.40
2022-08-23T10:11:45.337Z,39.70
2022-08-23T10:14:18.913Z,40.00
2022-08-23T10:17:14.699Z,40.40
2022-08-23T10:20:15.932Z,40.20
2022-08-23T10:22:49.392Z,40.00
2022-08-23T10:25:37.291Z,39.70
2022-08-23T10:28:37.289Z,39.80
2022-08-23T10:31:31.311Z,39.90
2022-08-23T10:34:24.581Z,40.20
2022-08-23T10:37:16.314Z,40.50
2022-08-23T10:40:04.405Z,41.30
2022-08-23T10:42:58.617Z,40.90
2022-08-23T10:45:33.418Z,40.80
2022-08-23T10:48:03.346Z,41.10
2022-08-23T10:50:41.729Z,42.00
2022-08-23T10:53:18.413Z,42.50
2022-08-23T10:56:03.586Z,42.40
2022-08-23T10:58:43.289Z,42.40
2022-08-23T11:01:21.817Z,42.20
2022-08-23T11:03:59.997Z,42.40
2022-08-23T11:06:35.608Z,43.30
2022-08-23T11:09:09.794Z,42.40
2022-08-23T11:11:49.920Z,42.70
2022-08-23T11:14:31.543Z,42.80
2022-08-23T11:17:03.068Z,43.40
2022-08-23T11:20:01.026Z,43.80
2022-08-23T11:22:54.010Z,44.40
2022-08-23T11:25:20.955Z,44.30
2022-08-23T11:27:48.219Z,44.50
2022-08-23T11:30:32.290Z,44.60
2022-08-23T11:33:28.901Z,44.60
2022-08-23T11:36:21.763Z,43.40
2022-08-23T11:38:49.104Z,43.60
2022-08-23T11:41:20.523Z,43.80
2022-08-23T11:43:50.226Z,44.50
2022-08-23T11:46:22.964Z,44.80
2022-08-23T11:49:21.738Z,43.70
2022-08-23T11:52:03.560Z,43.20
2022-08-23T11:55:07.256Z,44.10
2022-08-23T11:57:52.664Z,44.80
2022-08-23T12:00:32.238Z,44.00
2022-08-23T12:03:06.613Z,44.00
2022-08-23T12:05:39.576Z,44.10
2022-08-23T12:08:06.900Z,43.40
2022-08-23T12:10:43.116Z,43.10
2022-08-23T12:13:24.861Z,43.80
2022-08-23T12:16:16.744Z,44.10
2022-08-23T12:18:47.827Z,43.60
2022-08-23T12:21:23.569Z,43.70
2022-08-23T12:23:54.247Z,43.50
2022-08-23T12:26:27.248Z,44.60
2022-08-23T12:29:18.710Z,44.70
2022-08-23T12:32:08.063Z,44.20
2022-08-23T12:34:47.262Z,44.50
2022-08-23T12:37:17.500Z,44.50
2022-08-23T12:39:52.650Z,44.10
2022-08-23T12:42:29.120Z,44.10
2022-08-23T12:45:23.486Z,44.30
2022-08-23T12:48:02.956Z,44.60
2022-08-23T12:50:40.134Z,44.90
2022-08-23T12:53:14.122Z,43.50
2022-08-23T12:55:49.724Z,43.50
2022-08-23T12:58:28.746Z,43.80
2022-08-23T13:01:03.115Z,44.10
2022-08-23T13:03:41.716Z,44.20
2022-08-23T13:06:15.424Z,44.30
2022-08-23T13:08:54.479Z,45.80
2022-08-23T13:11:23.834Z,46.60
2022-08-23T13:13:50.624Z,46.70
2022-08-23T13:16:32.168Z,47.00
2022-08-23T13:19:22.196Z,46.50
2022-08-23T13:22:08.336Z,46.00
2022-08-23T13:24:39.235Z,45.40
2022-08-23T13:27:14.930Z,45.70
2022-08-23T13:29:53.631Z,45.70
2022-08-23T13:32:31.123Z,45.00
2022-08-23T13:35:22.983Z,44.80
2022-08-23T13:37:51.457Z,45.10
2022-08-23T13:40:52.788Z,45.10
2022-08-23T13:43:39.931Z,45.00
2022-08-23T13:46:22.494Z,45.70
2022-08-23T13:49:09.264Z,46.40
2022-08-23T13:51:41.774Z,47.30
2022-08-23T13:54:11.641Z,46.90
2022-08-23T13:56:51.190Z,45.80
2022-08-23T13:59:26.839Z,45.40
2022-08-23T14:02:01.608Z,45.90
2022-08-23T14:04:28.546Z,46.30
2022-08-23T14:06:55.389Z,46.50
2022-08-23T14:09:22.159Z,46.70
2022-08-23T14:11:58.854Z,46.70
2022-08-23T14:14:30.025Z,47.00
2022-08-23T14:17:00.831Z,47.30
2022-08-23T14:22:18.739Z,47.30
2022-08-23T14:24:45.698Z,47.20
2022-08-23T14:27:12.705Z,47.00
2022-08-23T14:29:39.436Z,45.60
2022-08-23T14:32:06.450Z,45.30
2022-08-23T14:34:33.218Z,45.70
2022-08-23T14:39:46.798Z,45.30
2022-08-23T14:42:18.767Z,46.30
2022-08-23T14:44:45.613Z,47.00
2022-08-23T14:47:12.364Z,47.90
2022-08-23T14:49:39.135Z,48.30
2022-08-23T14:52:06.002Z,48.70
2022-08-23T14:54:33.316Z,49.10
2022-08-23T14:57:00.106Z,49.10
2022-08-23T14:59:26.940Z,49.20
2022-08-23T15:01:54.764Z,49.10
2022-08-23T15:04:23.585Z,49.00
2022-08-23T15:07:16.302Z,48.50
2022-08-23T15:09:38.332Z,48.30
2022-08-23T15:14:52.567Z,47.20
2022-08-23T15:17:19.538Z,46.10
2022-08-23T15:19:46.237Z,45.70
2022-08-23T15:22:18.771Z,44.80
2022-08-23T15:24:49.278Z,44.90
2022-08-23T15:27:16.814Z,45.20
2022-08-23T15:29:43.789Z,45.00
2022-08-23T15:32:12.683Z,45.10
2022-08-23T15:34:46.284Z,44.40
2022-08-23T15:37:14.047Z,44.60
2022-08-23T15:39:42.088Z,45.10
2022-08-23T15:42:09.217Z,45.20
2022-08-23T15:44:35.968Z,45.70
2022-08-23T15:47:05.419Z,45.60
2022-08-23T15:49:36.310Z,44.60
2022-08-23T15:52:04.273Z,44.90
2022-08-23T15:54:31.142Z,45.10
2022-08-23T15:56:57.979Z,45.00
2022-08-23T15:59:25.059Z,44.70
2022-08-23T16:01:52.177Z,44.10
2022-08-23T16:04:19.130Z,44.20
2022-08-23T16:06:46.024Z,44.50
2022-08-23T16:09:19.553Z,44.50
2022-08-23T16:11:46.754Z,44.30
2022-08-23T16:14:13.921Z,44.50
2022-08-23T16:16:42.371Z,44.50
2022-08-23T16:19:09.913Z,43.30
2022-08-23T16:21:37.037Z,42.90
2022-08-23T16:24:05.172Z,42.60
2022-08-23T16:26:35.600Z,42.70
2022-08-23T16:29:07.052Z,42.90
2022-08-23T16:31:38.347Z,42.90
2022-08-23T16:34:09.261Z,43.20
2022-08-23T16:36:36.388Z,43.50
2022-08-23T16:39:04.812Z,43.20
2022-08-23T16:41:31.589Z,42.60
2022-08-23T16:43:58.362Z,42.30
2022-08-23T16:46:26.272Z,41.80
2022-08-23T16:48:53.160Z,41.20
2022-08-23T16:51:21.629Z,40.40
2022-08-23T16:54:02.232Z,39.70
2022-08-23T16:56:31.493Z,38.70
2022-08-23T16:58:58.441Z,37.80
2022-08-23T17:01:25.430Z,37.10
2022-08-23T17:03:52.785Z,37.00
2022-08-23T17:06:19.840Z,37.00
2022-08-23T17:08:48.042Z,36.70
2022-08-23T17:11:18.450Z,36.50
2022-08-23T17:13:45.443Z,36.10
2022-08-23T17:16:12.682Z,35.60
2022-08-23T17:18:39.703Z,35.20
2022-08-23T17:21:07.412Z,34.90
2022-08-23T17:23:37.635Z,34.50
2022-08-23T17:26:08.667Z,34.10
2022-08-23T17:28:35.896Z,33.80
2022-08-23T17:31:03.760Z,33.40
2022-08-23T17:33:30.654Z,33.20
2022-08-23T17:35:57.574Z,32.90
2022-08-23T17:38:24.387Z,32.70
2022-08-23T17:40:51.168Z,32.50
2022-08-23T17:43:18.220Z,32.30
2022-08-23T17:45:47.381Z,32.10
2022-08-23T17:48:16.668Z,31.90
2022-08-23T17:50:45.232Z,31.80
2022-08-23T17:53:14.264Z,31.60
2022-08-23T17:55:41.994Z,31.40
2022-08-23T17:58:10.383Z,31.30
2022-08-23T18:00:39.335Z,31.10
2022-08-23T18:03:06.910Z,30.90
2022-08-23T18:05:36.978Z,30.80
2022-08-23T18:08:04.563Z,30.60
2022-08-23T18:10:31.399Z,30.50
2022-08-23T18:12:58.807Z,30.30
2022-08-23T18:15:28.805Z,30.10
2022-08-23T18:17:58.365Z,30.00
2022-08-23T18:20:27.057Z,29.80
2022-08-23T18:22:56.305Z,29.60
2022-08-23T18:25:23.994Z,29.30
2022-08-23T18:28:06.368Z,29.10
2022-08-23T18:30:35.210Z,29.00
2022-08-23T18:33:02.719Z,28.80
2022-08-23T18:35:30.741Z,28.60
2022-08-23T18:37:57.894Z,28.40
2022-08-23T18:40:26.406Z,28.30
2022-08-23T18:42:53.800Z,28.00
2022-08-23T18:45:21.672Z,27.80
2022-08-23T18:47:48.860Z,27.70
2022-08-23T18:50:17.321Z,27.40
2022-08-23T18:52:44.145Z,27.30
2022-08-23T18:55:11.014Z,27.10
2022-08-23T18:57:38.538Z,26.90
2022-08-23T19:00:06.556Z,26.80
2022-08-23T19:02:34.125Z,26.60
2022-08-23T19:05:03.036Z,26.50
2022-08-23T19:07:38.762Z,26.30
2022-08-23T19:10:06.158Z,26.20
2022-08-23T19:12:33.250Z,26.10
2022-08-23T19:15:00.371Z,25.90
2022-08-23T19:17:27.602Z,25.80
2022-08-23T19:19:54.394Z,25.70
2022-08-23T19:22:21.160Z,25.70
2022-08-23T19:24:48.086Z,25.50
2022-08-23T19:27:15.012Z,25.40
2022-08-23T19:29:45.585Z,25.20
2022-08-23T19:32:13.935Z,25.10
2022-08-23T19:34:42.088Z,24.90
2022-08-23T19:37:12.612Z,24.90
2022-08-23T19:39:49.620Z,24.70
2022-08-23T19:42:16.578Z,24.50
2022-08-23T19:44:43.440Z,24.40
2022-08-23T19:47:19.382Z,24.20
2022-08-23T19:49:46.703Z,24.10
2022-08-23T19:52:13.508Z,24.00
2022-08-23T19:54:40.428Z,23.90
2022-08-23T19:57:09.887Z,23.70
2022-08-23T19:59:39.121Z,23.70
2022-08-23T20:02:06.643Z,23.60
2022-08-23T20:04:34.304Z,23.50
2022-08-23T20:07:03.435Z,23.40
2022-08-23T20:09:31.651Z,23.30
2022-08-23T20:11:59.501Z,23.20
2022-08-23T20:14:27.463Z,23.10
2022-08-23T20:16:54.797Z,23.00
2022-08-23T20:19:22.584Z,23.00
2022-08-23T20:21:49.667Z,22.90
2022-08-23T20:24:25.456Z,22.90
2022-08-23T20:26:59.554Z,22.90
2022-08-23T20:29:26.438Z,22.80
2022-08-23T20:31:56.020Z,22.80
2022-08-23T20:34:27.147Z,22.70
2022-08-23T20:36:56.424Z,22.60
2022-08-23T20:39:24.731Z,22.70
2022-08-23T20:41:52.528Z,22.60
2022-08-23T20:44:21.177Z,22.60
2022-08-23T20:46:53.181Z,22.60
2022-08-23T20:49:21.792Z,22.60
2022-08-23T20:51:49.004Z,22.50
2022-08-23T20:54:17.426Z,22.50
2022-08-23T20:56:44.372Z,22.40
2022-08-23T20:59:12.968Z,22.40
2022-08-23T21:01:40.488Z,22.20
2022-08-23T21:04:07.388Z,22.10
2022-08-23T21:06:45.268Z,21.90
2022-08-23T21:09:16.890Z,21.80
2022-08-23T21:11:43.888Z,21.70
2022-08-23T21:14:11.111Z,21.70
2022-08-23T21:16:38.729Z,21.60
2022-08-23T21:19:05.977Z,21.50
2022-08-23T21:21:33.208Z,21.40
2022-08-23T21:24:00.337Z,21.40
2022-08-23T21:26:27.574Z,21.30
2022-08-23T21:28:54.534Z,21.20
2022-08-23T21:31:24.027Z,21.20
2022-08-23T21:33:51.807Z,21.10
2022-08-23T21:36:20.308Z,21.00
2022-08-23T21:38:47.539Z,20.90
2022-08-23T21:41:36.412Z,20.80
2022-08-23T21:44:06.506Z,20.80
2022-08-23T21:46:33.620Z,20.70
2022-08-23T21:49:00.646Z,20.60
2022-08-23T21:51:27.662Z,20.60
2022-08-23T21:53:54.751Z,20.70
2022-08-23T21:56:21.758Z,20.70
2022-08-23T21:58:50.612Z,20.70
2022-08-23T22:01:18.593Z,20.70
2022-08-23T22:03:45.710Z,20.70
2022-08-23T22:06:14.841Z,20.80
2022-08-23T22:08:44.601Z,20.70
2022-08-23T22:11:12.363Z,20.80
2022-08-23T22:13:41.110Z,20.70
2022-08-23T22:16:08.357Z,20.70
2022-08-23T22:18:35.914Z,20.70
2022-08-23T22:21:04.247Z,20.70
2022-08-23T22:23:31.697Z,20.60
2022-08-23T22:26:04.387Z,20.60
2022-08-23T22:28:32.586Z,20.60
2022-08-23T22:31:05.526Z,20.60
2022-08-23T22:33:33.205Z,20.60
2022-08-23T22:36:12.277Z,20.40
2022-08-23T22:38:39.730Z,20.20
2022-08-23T22:41:07.535Z,20.00
2022-08-23T22:43:34.525Z,19.80
2022-08-23T22:46:04.540Z,19.70
2022-08-23T22:48:34.273Z,19.60
2022-08-23T22:51:13.007Z,19.60
2022-08-23T22:53:44.387Z,19.60
2022-08-23T22:56:14.314Z,19.60
2022-08-23T22:58:41.310Z,19.60
2022-08-23T23:01:13.040Z,19.70
2022-08-23T23:03:41.933Z,19.70
2022-08-23T23:06:09.412Z,19.80
2022-08-23T23:08:36.986Z,19.80
2022-08-23T23:11:07.234Z,19.90
2022-08-23T23:13:39.368Z,19.90
2022-08-23T23:16:13.370Z,20.00
2022-08-23T23:18:41.797Z,20.10
2022-08-23T23:21:09.150Z,20.20
2022-08-23T23:23:37.824Z,20.30
2022-08-23T23:26:08.041Z,20.40
2022-08-23T23:28:35.269Z,20.40
2022-08-23T23:31:03.451Z,20.50
2022-08-23T23:33:30.426Z,20.50
2022-08-23T23:35:57.267Z,20.50
2022-08-23T23:38:24.170Z,20.40
2022-08-23T23:40:51.283Z,20.40
2022-08-23T23:43:18.261Z,20.40
2022-08-23T23:45:45.359Z,20.30
2022-08-23T23:48:12.354Z,20.30
2022-08-23T23:50:45.003Z,20.30
2022-08-23T23:53:13.193Z,20.30
2022-08-23T23:55:40.312Z,20.30
2022-08-23T23:58:07.324Z,20.30
